Hickory Corners, MI

1:23 PM EST on February 25, 2017 (GMT -0500)
HeronHouse | | Change Station

Elev 892 ft 42.40 °N, 85.40 °W | Updated 5 seconds ago

Snow
Snow
27.1 °F
Feels Like 12 °F
N
23.9
Wind Variable Wind from WNW
Gusts 24.8 mph

Today
High -- | Low -- °F
--% Chance of Precip.
Yesterday
High -- | Low -- °F
Precip. -- in
Pressure 29.75 in
Visibility 9.0 miles
Clouds Mostly Cloudy 1900 ft
Mostly Cloudy 2800 ft
Overcast 3300 ft
Windchill 12 °F
Dew Point 17 °F
Humidity 65%
Rainfall 0.00 in
Snow Depth Not available.
7:22 AM 6:26 PM
Waning Crescent, 1% visible
METAR KBTL 251753Z 28021G24KT 9SM -SN BKN019 BKN028 OVC033 M03/M07 A2972 RMK AO2 PK WND 29030/1654 SLP072 P0000 60000 T10281067 11006 21033 51026
Pressure 29.75 in
Visibility 9.0 miles
Clouds Mostly Cloudy 1900 ft
Mostly Cloudy 2800 ft
Overcast 3300 ft
Windchill 12 °F
Dew Point 17 °F
Humidity 65%
Rainfall 0.00 in
Snow Depth Not available.
7:22 AM 6:26 PM
Waning Crescent, 1% visible
METAR KBTL 251753Z 28021G24KT 9SM -SN BKN019 BKN028 OVC033 M03/M07 A2972 RMK AO2 PK WND 29030/1654 SLP072 P0000 60000 T10281067 11006 21033 51026

Get Your Daily Forecast Email!

Thanks for signing up!

Be on the lookout for a verification email in your inbox.

You'll start receiving the daily forecast at 8 AM.

×

10-Day Weather Forecast

Almanac

Astronomy

Feb. 25, 2017 Rise Set
Actual Time
Civil Twilight
Nautical Twilight
Astronomical Twilight
Moon
Length of Visible Light
Length of Day
Tomorrow will be .
, % of the Moon is Illuminated

Today's Extremes

State Highs State Lows

Community

WunderPhotos

Upload Photos

1,962,540 photos uploaded!

WunderBlog® & News

Nearby

Air Quality

  Air Quality AQ Index Pollutant
Not available.

Snow Depth

Station Depth Elevation

Earthquake Activity

City Distance Mag. Time & Date
Minimum magnitude displayed is 2.5.

Coastal Water Temperatures

Place Temperature

Stations

Nearby Weather Stations

Station Location Temp. Windchill Dew Point Humidity Wind Precip. Elev Updated Type
                   

Watches & Warnings

There are currently no watches in effect.